Ampthill, Virginia
Current Conditions -  °F | °C
As of 7:54 PM on Tuesday 21 Oct 2014 (Local Time) from KRIC Reporting Station
Overcast Overcast  
Wind Chill: 60°   Ceiling: 11000
Heat Index: 60°   Visibility: 10mi
Dew Point: 52°   Wind: 16mph
Humidity: 75%   Direction: 350°N
Pressure: 29.86"   Gusts: 22mph
Location:  37.4513°N, 77.4708°W
Report Text: KRIC 212354Z 35014G19KT 10SM FEW038 SCT070 OVC110 16/11 A2986 RMK AO2 PK WND 32037/2335 WSHFT 2334 RAE09 SLP116 P0001 60004 T01560111 10233 20150 53020
Loading
Personal Weather Stations






























Interactive Weather Map
Tropical Storm Tracking
New forecast layout! Learn more

10-Day Weather Forecast

Advertisements
Track Severe Weather on mobile